createdAt,value
2018-05-29T00:02:01.435Z,16.10
2018-05-29T00:04:27.667Z,16.10
2018-05-29T00:06:53.945Z,16.10
2018-05-29T00:09:20.258Z,16.00
2018-05-29T00:11:46.519Z,15.90
2018-05-29T00:14:12.768Z,15.80
2018-05-29T00:16:39.758Z,15.70
2018-05-29T00:19:06.025Z,15.70
2018-05-29T00:21:32.348Z,15.60
2018-05-29T00:23:59.323Z,15.60
2018-05-29T00:26:25.603Z,15.50
2018-05-29T00:28:51.910Z,15.50
2018-05-29T00:31:18.465Z,15.50
2018-05-29T00:33:45.474Z,15.50
2018-05-29T00:36:11.700Z,15.40
2018-05-29T00:38:38.010Z,15.50
2018-05-29T00:41:04.280Z,15.50
2018-05-29T00:43:30.880Z,15.50
2018-05-29T00:45:57.153Z,15.60
2018-05-29T00:48:24.188Z,15.50
2018-05-29T00:50:50.424Z,15.50
2018-05-29T00:53:16.663Z,15.50
2018-05-29T00:55:42.903Z,15.40
2018-05-29T00:58:09.128Z,15.20
2018-05-29T01:00:35.379Z,15.10
2018-05-29T01:03:02.348Z,14.90
2018-05-29T01:05:29.368Z,14.90
2018-05-29T01:07:55.603Z,14.80
2018-05-29T01:10:21.888Z,14.70
2018-05-29T01:12:48.150Z,14.50
2018-05-29T01:15:14.744Z,14.50
2018-05-29T01:17:41.803Z,14.50
2018-05-29T01:20:08.073Z,14.50
2018-05-29T01:22:35.102Z,14.50
2018-05-29T01:25:01.720Z,14.50
2018-05-29T01:27:29.071Z,14.40
2018-05-29T01:29:55.346Z,14.40
2018-05-29T01:32:21.591Z,14.40
2018-05-29T01:34:48.589Z,14.30
2018-05-29T01:37:14.866Z,14.40
2018-05-29T01:39:41.136Z,14.30
2018-05-29T01:42:08.111Z,14.30
2018-05-29T01:44:34.350Z,14.30
2018-05-29T01:47:00.974Z,14.30
2018-05-29T01:49:27.951Z,14.20
2018-05-29T01:51:54.176Z,14.20
2018-05-29T01:54:20.401Z,14.20
2018-05-29T01:56:46.667Z,14.30
2018-05-29T01:59:12.916Z,14.30
2018-05-29T02:01:39.951Z,14.30
2018-05-29T02:04:06.921Z,14.30
2018-05-29T02:06:33.151Z,14.30
2018-05-29T02:08:59.426Z,14.40
2018-05-29T02:11:26.409Z,14.20
2018-05-29T02:13:52.633Z,14.20
2018-05-29T02:16:19.618Z,14.20
2018-05-29T02:18:45.838Z,14.20
2018-05-29T02:21:12.093Z,14.20
2018-05-29T02:23:38.329Z,14.20
2018-05-29T02:26:04.580Z,14.10
2018-05-29T02:28:30.863Z,14.20
2018-05-29T02:30:57.829Z,14.20
2018-05-29T02:33:24.440Z,14.10
2018-05-29T02:35:50.703Z,14.20
2018-05-29T02:38:17.305Z,14.10
2018-05-29T02:40:43.590Z,14.10
2018-05-29T02:43:09.836Z,14.10
2018-05-29T02:45:36.072Z,14.20
2018-05-29T02:48:02.297Z,14.30
2018-05-29T02:50:28.616Z,14.30
2018-05-29T02:52:55.621Z,14.40
2018-05-29T02:55:21.898Z,14.30
2018-05-29T02:57:48.490Z,14.30
2018-05-29T03:00:14.735Z,14.20
2018-05-29T03:02:40.954Z,14.10
2018-05-29T03:05:07.219Z,14.00
2018-05-29T03:07:34.204Z,13.90
2018-05-29T03:10:01.189Z,14.00
2018-05-29T03:12:27.419Z,13.90
2018-05-29T03:14:53.636Z,13.80
2018-05-29T03:17:19.905Z,13.90
2018-05-29T03:19:46.124Z,13.90
2018-05-29T03:22:12.435Z,13.90
2018-05-29T03:24:39.049Z,13.80
2018-05-29T03:27:05.339Z,13.70
2018-05-29T03:29:31.974Z,13.70
2018-05-29T03:31:58.221Z,13.60
2018-05-29T03:34:24.454Z,13.60
2018-05-29T03:36:50.731Z,13.60
2018-05-29T03:39:16.988Z,13.50
2018-05-29T03:41:43.234Z,13.50
2018-05-29T03:44:10.200Z,13.50
2018-05-29T03:46:36.449Z,13.50
2018-05-29T03:49:02.699Z,13.50
2018-05-29T03:51:28.930Z,13.50
2018-05-29T03:53:55.214Z,13.50
2018-05-29T03:56:21.785Z,13.60
2018-05-29T03:58:48.444Z,13.60
2018-05-29T04:01:14.680Z,13.60
2018-05-29T04:03:40.901Z,13.60
2018-05-29T04:06:07.151Z,13.70
2018-05-29T04:08:33.379Z,13.60
2018-05-29T04:10:59.606Z,13.70
2018-05-29T04:13:26.257Z,13.60
2018-05-29T04:15:52.565Z,13.70
2018-05-29T04:18:18.801Z,13.60
2018-05-29T04:20:45.820Z,13.70
2018-05-29T04:23:12.033Z,13.80
2018-05-29T04:25:38.260Z,13.70
2018-05-29T04:28:04.891Z,13.90
2018-05-29T04:30:31.140Z,14.00
2018-05-29T04:32:57.411Z,14.00
2018-05-29T04:35:24.356Z,14.00
2018-05-29T04:37:50.607Z,14.00
2018-05-29T04:40:17.177Z,13.90
2018-05-29T04:42:44.184Z,14.00
2018-05-29T04:45:21.016Z,14.00
2018-05-29T04:47:47.986Z,14.10
2018-05-29T04:50:14.261Z,14.20
2018-05-29T04:52:40.552Z,14.20
2018-05-29T04:55:06.770Z,14.20
2018-05-29T04:57:33.795Z,14.30
2018-05-29T05:00:00.001Z,14.40
2018-05-29T05:02:27.445Z,14.30
2018-05-29T05:04:53.631Z,14.40
2018-05-29T05:07:20.235Z,14.40
2018-05-29T05:09:46.488Z,14.50
2018-05-29T05:12:12.759Z,14.50
2018-05-29T05:14:39.755Z,14.60
2018-05-29T05:17:05.973Z,14.70
2018-05-29T05:19:32.232Z,14.80
2018-05-29T05:21:58.463Z,14.90
2018-05-29T05:24:24.728Z,15.10
2018-05-29T05:26:51.696Z,15.10
2018-05-29T05:29:17.937Z,15.30
2018-05-29T05:31:44.193Z,15.40
2018-05-29T05:34:10.795Z,15.60
2018-05-29T05:36:37.036Z,15.80
2018-05-29T05:39:03.395Z,15.80
2018-05-29T05:41:29.616Z,15.80
2018-05-29T05:43:55.894Z,15.90
2018-05-29T05:46:22.128Z,15.90
2018-05-29T05:48:48.750Z,16.00
2018-05-29T05:51:15.795Z,16.00
2018-05-29T05:53:42.036Z,16.10
2018-05-29T05:56:08.626Z,16.20
2018-05-29T05:58:34.962Z,16.20
2018-05-29T06:01:01.981Z,16.40
2018-05-29T06:03:29.012Z,16.60
2018-05-29T06:05:55.255Z,16.70
2018-05-29T06:08:21.900Z,16.90
2018-05-29T06:10:48.487Z,17.00
2018-05-29T06:13:14.755Z,17.10
2018-05-29T06:15:41.018Z,17.20
2018-05-29T06:18:07.637Z,17.40
2018-05-29T06:20:33.892Z,17.60
2018-05-29T06:23:00.137Z,17.60
2018-05-29T06:25:27.182Z,17.60
2018-05-29T06:27:53.465Z,17.70
2018-05-29T06:30:19.737Z,17.80
2018-05-29T06:32:45.991Z,18.00
2018-05-29T06:35:12.251Z,18.10
2018-05-29T06:37:38.516Z,18.20
2018-05-29T06:40:04.841Z,18.40
2018-05-29T06:42:31.065Z,18.40
2018-05-29T06:44:57.773Z,18.50
2018-05-29T06:47:24.332Z,18.50
2018-05-29T06:49:51.291Z,18.50
2018-05-29T06:52:17.910Z,18.40
2018-05-29T06:54:44.157Z,18.50
2018-05-29T06:57:10.437Z,18.50
2018-05-29T06:59:36.706Z,18.50
2018-05-29T07:02:02.942Z,18.50
2018-05-29T07:04:29.166Z,18.50
2018-05-29T07:06:55.800Z,18.40
2018-05-29T07:09:28.062Z,18.40
2018-05-29T07:11:54.367Z,18.50
2018-05-29T07:14:21.345Z,18.50
2018-05-29T07:16:47.577Z,18.50
2018-05-29T07:19:13.803Z,18.50
2018-05-29T07:21:40.091Z,18.50
2018-05-29T07:24:07.101Z,18.40
2018-05-29T07:26:33.421Z,18.50
2018-05-29T07:29:00.413Z,18.50
2018-05-29T07:31:26.697Z,18.50
2018-05-29T07:33:53.687Z,18.50
2018-05-29T07:36:19.939Z,18.50
2018-05-29T07:38:46.941Z,18.50
2018-05-29T07:41:13.947Z,18.50
2018-05-29T07:43:40.231Z,18.50
2018-05-29T07:46:06.851Z,18.60
2018-05-29T07:48:33.886Z,18.70
2018-05-29T07:51:00.141Z,18.70
2018-05-29T07:53:26.426Z,19.00
2018-05-29T07:55:52.701Z,19.00
2018-05-29T07:58:18.983Z,19.10
2018-05-29T08:00:45.975Z,19.10
2018-05-29T08:03:12.216Z,19.10
2018-05-29T08:05:38.502Z,19.20
2018-05-29T08:08:05.487Z,19.20
2018-05-29T08:10:31.769Z,19.30
2018-05-29T08:12:58.047Z,19.30
2018-05-29T08:15:24.314Z,19.40
2018-05-29T08:17:51.272Z,19.50
2018-05-29T08:20:17.578Z,19.60
2018-05-29T08:22:43.827Z,19.60
2018-05-29T08:25:10.071Z,19.60
2018-05-29T08:27:37.053Z,19.60
2018-05-29T08:30:03.332Z,19.60
2018-05-29T08:32:29.577Z,19.70
2018-05-29T08:34:55.808Z,19.80
2018-05-29T08:37:22.067Z,19.80
2018-05-29T08:39:49.039Z,19.80
2018-05-29T08:42:15.330Z,19.80
2018-05-29T08:44:41.599Z,19.80
2018-05-29T08:47:07.902Z,19.90
2018-05-29T08:49:34.148Z,19.90
2018-05-29T08:52:00.387Z,20.10
2018-05-29T08:54:26.646Z,20.10
2018-05-29T08:56:52.893Z,20.40
2018-05-29T08:59:19.151Z,20.60
2018-05-29T09:01:45.855Z,20.70
2018-05-29T09:04:12.071Z,20.90
2018-05-29T09:06:38.333Z,20.90
2018-05-29T09:09:04.963Z,20.90
2018-05-29T09:11:31.218Z,21.00
2018-05-29T09:13:57.884Z,20.90
2018-05-29T09:16:24.152Z,21.00
2018-05-29T09:18:51.244Z,21.00
2018-05-29T09:21:17.488Z,21.00
2018-05-29T09:23:43.772Z,21.00
2018-05-29T09:26:10.786Z,21.30
2018-05-29T09:28:37.394Z,21.40
2018-05-29T09:31:03.695Z,21.40
2018-05-29T09:33:30.693Z,21.30
2018-05-29T09:35:56.972Z,21.30
2018-05-29T09:38:24.033Z,21.40
2018-05-29T09:40:51.322Z,21.40
2018-05-29T09:43:17.958Z,21.20
2018-05-29T09:45:44.256Z,21.20
2018-05-29T09:48:10.479Z,21.00
2018-05-29T09:50:36.774Z,21.00
2018-05-29T09:53:03.054Z,21.20
2018-05-29T09:55:29.294Z,21.40
2018-05-29T09:57:55.548Z,21.50
2018-05-29T10:00:28.025Z,21.60
2018-05-29T10:02:54.299Z,21.60
2018-05-29T10:05:21.527Z,21.70
2018-05-29T10:07:48.468Z,21.70
2018-05-29T10:10:14.746Z,21.80
2018-05-29T10:12:41.033Z,21.70
2018-05-29T10:15:07.316Z,21.60
2018-05-29T10:17:33.572Z,21.50
2018-05-29T10:20:00.647Z,21.40
2018-05-29T10:22:26.878Z,21.50
2018-05-29T10:24:53.179Z,22.10
2018-05-29T10:27:19.408Z,22.50
2018-05-29T10:29:46.122Z,22.80
2018-05-29T10:32:12.324Z,22.70
2018-05-29T10:34:38.600Z,22.60
2018-05-29T10:37:05.273Z,22.60
2018-05-29T10:39:31.533Z,22.60
2018-05-29T10:41:57.774Z,22.80
2018-05-29T10:44:23.988Z,22.80
2018-05-29T10:46:50.279Z,22.70
2018-05-29T10:49:16.545Z,22.70
2018-05-29T10:51:42.827Z,22.80
2018-05-29T10:54:09.085Z,22.70
2018-05-29T10:56:35.348Z,23.20
2018-05-29T10:59:01.625Z,23.20
2018-05-29T11:01:28.636Z,23.30
2018-05-29T11:03:54.883Z,23.20
2018-05-29T11:06:21.148Z,23.20
2018-05-29T11:08:48.138Z,23.10
2018-05-29T11:11:15.155Z,23.00
2018-05-29T11:13:41.467Z,22.80
2018-05-29T11:16:07.714Z,22.80
2018-05-29T11:18:34.010Z,22.70
2018-05-29T11:21:01.063Z,22.50
2018-05-29T11:23:28.070Z,22.40
2018-05-29T11:25:54.372Z,22.40
2018-05-29T11:28:20.653Z,22.30
2018-05-29T11:30:46.881Z,22.20
2018-05-29T11:33:13.132Z,22.30
2018-05-29T11:35:39.749Z,22.50
2018-05-29T11:38:06.037Z,22.70
2018-05-29T11:40:32.969Z,23.10
2018-05-29T11:42:59.265Z,23.50
2018-05-29T11:45:25.543Z,23.80
2018-05-29T11:47:52.203Z,23.90
2018-05-29T11:50:18.518Z,24.10
2018-05-29T11:52:44.790Z,24.50
2018-05-29T11:55:11.801Z,24.50
2018-05-29T11:57:38.063Z,24.30
2018-05-29T12:00:04.349Z,24.30
2018-05-29T12:02:30.604Z,23.60
2018-05-29T12:04:56.888Z,23.10
2018-05-29T12:07:23.903Z,22.80
2018-05-29T12:09:50.194Z,22.60
2018-05-29T12:12:25.322Z,22.60
2018-05-29T12:14:52.424Z,22.40
2018-05-29T12:17:18.717Z,22.30
2018-05-29T12:19:44.989Z,22.30
2018-05-29T12:22:11.263Z,22.20
2018-05-29T12:24:37.644Z,22.30
2018-05-29T12:27:03.979Z,22.30
2018-05-29T12:29:30.253Z,22.50
2018-05-29T12:31:56.878Z,22.50
2018-05-29T12:34:23.903Z,22.60
2018-05-29T12:36:50.242Z,22.70
2018-05-29T12:39:16.493Z,22.70
2018-05-29T12:41:42.818Z,22.70
2018-05-29T12:44:09.805Z,22.40
2018-05-29T12:46:36.060Z,22.10
2018-05-29T12:49:02.322Z,22.00
2018-05-29T12:51:29.305Z,21.70
2018-05-29T12:53:55.595Z,21.60
2018-05-29T12:56:21.868Z,21.40
2018-05-29T12:58:48.128Z,21.50
2018-05-29T13:01:14.384Z,21.40
2018-05-29T13:03:40.698Z,21.20
2018-05-29T13:06:08.115Z,21.10
2018-05-29T13:08:35.136Z,21.00
2018-05-29T13:11:01.379Z,21.20
2018-05-29T13:13:27.663Z,21.20
2018-05-29T13:15:53.908Z,20.90
2018-05-29T13:18:20.176Z,20.80
2018-05-29T13:20:46.410Z,20.80
2018-05-29T13:23:12.715Z,20.80
2018-05-29T13:25:38.984Z,20.80
2018-05-29T13:28:05.656Z,20.70
2018-05-29T13:30:32.708Z,20.80
2018-05-29T13:32:58.943Z,20.60
2018-05-29T13:35:25.598Z,20.40
2018-05-29T13:37:52.609Z,20.00
2018-05-29T13:40:18.923Z,19.80
2018-05-29T13:42:45.233Z,19.50
2018-05-29T13:45:12.294Z,19.20
2018-05-29T13:47:38.579Z,19.10
2018-05-29T13:50:05.959Z,18.90
2018-05-29T13:52:32.271Z,18.80
2018-05-29T13:54:58.579Z,18.70
2018-05-29T13:57:25.245Z,18.70
2018-05-29T13:59:51.504Z,18.70
2018-05-29T14:02:17.799Z,18.90
2018-05-29T14:04:44.137Z,18.90
2018-05-29T14:07:10.440Z,18.90
2018-05-29T14:09:37.100Z,18.90
2018-05-29T14:12:04.213Z,18.80
2018-05-29T14:14:30.454Z,18.80
2018-05-29T14:16:56.734Z,18.70
2018-05-29T14:19:23.774Z,18.70
2018-05-29T14:21:50.808Z,18.70
2018-05-29T14:24:17.449Z,18.70
2018-05-29T14:26:44.139Z,18.70
2018-05-29T14:29:10.422Z,18.70
2018-05-29T14:31:36.683Z,18.70
2018-05-29T14:36:57.680Z,18.90
2018-05-29T14:39:23.920Z,19.50
2018-05-29T14:41:50.148Z,20.40
2018-05-29T14:44:16.491Z,21.30
2018-05-29T14:46:42.704Z,21.90
2018-05-29T14:49:09.783Z,22.40
2018-05-29T14:51:36.063Z,22.60
2018-05-29T14:54:02.340Z,22.20
2018-05-29T14:56:29.399Z,22.00
2018-05-29T14:58:55.649Z,22.30
2018-05-29T15:03:59.594Z,23.10
2018-05-29T15:06:26.579Z,23.30
2018-05-29T15:08:52.922Z,24.00
2018-05-29T15:11:19.192Z,24.20
2018-05-29T15:13:45.455Z,24.50
2018-05-29T15:16:11.762Z,24.40
2018-05-29T15:18:38.427Z,24.40
2018-05-29T15:21:04.660Z,24.40
2018-05-29T15:23:30.925Z,24.30
2018-05-29T15:25:57.934Z,23.90
2018-05-29T15:28:24.223Z,23.10
2018-05-29T15:30:50.484Z,22.30
2018-05-29T15:33:16.774Z,21.80
2018-05-29T15:35:43.380Z,21.90
2018-05-29T15:38:10.850Z,22.10
2018-05-29T15:40:37.099Z,22.00
2018-05-29T15:43:03.821Z,22.10
2018-05-29T15:45:30.064Z,22.30
2018-05-29T15:47:56.340Z,23.70
2018-05-29T15:50:23.355Z,22.60
2018-05-29T15:52:50.625Z,22.00
2018-05-29T15:55:17.275Z,22.80
2018-05-29T15:57:43.544Z,22.70
2018-05-29T16:00:10.586Z,22.60
2018-05-29T16:02:38.599Z,22.40
2018-05-29T16:05:04.939Z,21.90
2018-05-29T16:07:31.209Z,21.50
2018-05-29T16:09:57.529Z,21.30
2018-05-29T16:12:23.740Z,21.10
2018-05-29T16:14:50.135Z,20.90
2018-05-29T16:17:16.808Z,20.70
2018-05-29T16:19:43.861Z,20.60
2018-05-29T16:22:10.229Z,20.60
2018-05-29T16:24:36.915Z,20.80
2018-05-29T16:27:03.207Z,20.90
2018-05-29T16:29:29.854Z,21.10
2018-05-29T16:31:56.160Z,21.20
2018-05-29T16:34:22.775Z,21.30
2018-05-29T16:36:49.082Z,21.30
2018-05-29T16:39:15.365Z,21.20
2018-05-29T16:41:42.414Z,21.20
2018-05-29T16:44:09.450Z,21.30
2018-05-29T16:46:35.780Z,21.20
2018-05-29T16:49:02.053Z,21.20
2018-05-29T16:51:29.075Z,21.40
2018-05-29T16:53:55.789Z,21.50
2018-05-29T16:56:22.148Z,21.50
2018-05-29T16:58:48.777Z,21.70
2018-05-29T17:01:15.060Z,21.80
2018-05-29T17:03:42.096Z,22.10
2018-05-29T17:06:08.371Z,22.10
2018-05-29T17:08:34.664Z,22.10
2018-05-29T17:11:01.376Z,22.10
2018-05-29T17:13:27.668Z,22.10
2018-05-29T17:15:54.354Z,21.90
2018-05-29T17:18:20.710Z,21.80
2018-05-29T17:20:47.001Z,21.90
2018-05-29T17:23:14.015Z,22.00
2018-05-29T17:25:40.270Z,22.10
2018-05-29T17:28:07.310Z,22.10
2018-05-29T17:30:34.001Z,22.10
2018-05-29T17:33:00.365Z,22.00
2018-05-29T17:35:27.415Z,21.80
2018-05-29T17:37:53.742Z,21.70
2018-05-29T17:40:20.045Z,21.60
2018-05-29T17:42:47.075Z,21.40
2018-05-29T17:45:13.370Z,21.20
2018-05-29T17:47:39.760Z,21.10
2018-05-29T17:50:06.901Z,20.80
2018-05-29T17:52:33.180Z,20.60
2018-05-29T17:55:00.223Z,20.40
2018-05-29T17:57:27.432Z,20.20
2018-05-29T17:59:53.760Z,20.00
2018-05-29T18:02:20.543Z,19.80
2018-05-29T18:04:47.680Z,19.60
2018-05-29T18:07:14.154Z,19.50
2018-05-29T18:09:40.571Z,19.30
2018-05-29T18:12:07.072Z,19.30
2018-05-29T18:14:34.325Z,19.10
2018-05-29T18:17:00.638Z,18.90
2018-05-29T18:19:27.293Z,18.80
2018-05-29T18:21:53.946Z,18.70
2018-05-29T18:24:20.229Z,18.50
2018-05-29T18:26:47.299Z,18.50
2018-05-29T18:29:13.572Z,18.40
2018-05-29T18:31:39.841Z,18.30
2018-05-29T18:34:06.193Z,18.30
2018-05-29T18:36:32.511Z,18.20
2018-05-29T18:38:58.907Z,18.10
2018-05-29T18:41:26.062Z,18.00
2018-05-29T18:43:53.077Z,18.00
2018-05-29T18:46:19.720Z,17.90
2018-05-29T18:48:46.090Z,17.90
2018-05-29T18:51:13.154Z,17.80
2018-05-29T18:53:40.209Z,17.80
2018-05-29T18:56:06.941Z,17.80
2018-05-29T18:58:33.359Z,17.70
2018-05-29T19:01:00.063Z,17.70
2018-05-29T19:03:27.217Z,17.60
2018-05-29T19:05:53.461Z,17.60
2018-05-29T19:08:20.476Z,17.60
2018-05-29T19:10:47.513Z,17.50
2018-05-29T19:13:13.862Z,17.40
2018-05-29T19:15:40.638Z,17.40
2018-05-29T19:18:06.940Z,17.30
2018-05-29T19:20:33.636Z,17.30
2018-05-29T19:23:00.407Z,17.30
2018-05-29T19:25:26.628Z,17.20
2018-05-29T19:27:53.332Z,17.20
2018-05-29T19:30:20.376Z,17.10
2018-05-29T19:32:46.704Z,17.10
2018-05-29T19:35:13.012Z,17.00
2018-05-29T19:37:39.311Z,17.00
2018-05-29T19:40:06.008Z,16.90
2018-05-29T19:42:32.260Z,16.90
2018-05-29T19:44:59.321Z,16.80
2018-05-29T19:47:26.000Z,16.90
2018-05-29T19:49:52.306Z,16.80
2018-05-29T19:52:18.641Z,16.80
2018-05-29T19:54:44.950Z,16.80
2018-05-29T19:57:11.588Z,16.70
2018-05-29T19:59:38.289Z,16.70
2018-05-29T20:02:04.567Z,16.70
2018-05-29T20:04:30.888Z,16.60
2018-05-29T20:06:58.013Z,16.50
2018-05-29T20:09:25.053Z,16.50
2018-05-29T20:11:52.084Z,16.40
2018-05-29T20:14:18.442Z,16.40
2018-05-29T20:16:45.107Z,16.30
2018-05-29T20:19:12.145Z,16.20
2018-05-29T20:21:39.178Z,16.20
2018-05-29T20:24:05.856Z,16.10
2018-05-29T20:26:32.845Z,16.10
2018-05-29T20:28:59.171Z,16.10
2018-05-29T20:31:25.755Z,16.10
2018-05-29T20:33:52.061Z,16.00
2018-05-29T20:36:18.374Z,16.00
2018-05-29T20:38:45.040Z,16.00
2018-05-29T20:41:11.388Z,15.90
2018-05-29T20:43:37.697Z,15.90
2018-05-29T20:46:04.045Z,15.90
2018-05-29T20:48:30.698Z,15.90
2018-05-29T20:50:57.022Z,15.90
2018-05-29T20:53:23.290Z,15.80
2018-05-29T20:55:49.584Z,15.80
2018-05-29T20:58:18.691Z,15.70
2018-05-29T21:00:45.413Z,15.70
2018-05-29T21:03:12.347Z,15.70
2018-05-29T21:05:39.648Z,15.70
2018-05-29T21:08:06.032Z,15.70
2018-05-29T21:10:32.456Z,15.70
2018-05-29T21:12:58.836Z,15.60
2018-05-29T21:15:25.566Z,15.60
2018-05-29T21:17:51.931Z,15.50
2018-05-29T21:20:19.175Z,15.40
2018-05-29T21:22:45.828Z,15.40
2018-05-29T21:25:13.125Z,15.40
2018-05-29T21:27:39.396Z,15.30
2018-05-29T21:30:06.381Z,15.30
2018-05-29T21:32:33.892Z,15.30
2018-05-29T21:35:00.152Z,15.20
2018-05-29T21:37:26.967Z,15.20
2018-05-29T21:39:53.591Z,15.20
2018-05-29T21:42:20.803Z,15.20
2018-05-29T21:44:47.978Z,15.10
2018-05-29T21:47:14.723Z,15.10
2018-05-29T21:49:41.403Z,15.20
2018-05-29T21:52:08.499Z,15.30
2018-05-29T21:54:35.551Z,15.40
2018-05-29T21:57:01.832Z,15.30
2018-05-29T21:59:28.629Z,15.30
2018-05-29T22:01:55.714Z,15.30
2018-05-29T22:04:22.460Z,15.10
2018-05-29T22:06:50.007Z,15.00
2018-05-29T22:09:17.683Z,14.90
2018-05-29T22:11:44.763Z,14.80
2018-05-29T22:14:11.368Z,14.80
2018-05-29T22:16:37.663Z,14.80
2018-05-29T22:19:04.253Z,14.90
2018-05-29T22:21:32.266Z,14.70
2018-05-29T22:23:58.963Z,14.70
2018-05-29T22:26:25.808Z,14.70
2018-05-29T22:28:52.493Z,14.80
2018-05-29T22:33:53.532Z,14.80
2018-05-29T22:36:19.847Z,14.80
2018-05-29T22:38:46.088Z,14.70
2018-05-29T22:41:13.160Z,14.50
2018-05-29T22:43:39.424Z,14.40
2018-05-29T22:46:05.706Z,14.50
2018-05-29T22:48:32.013Z,14.40
2018-05-29T22:50:58.649Z,14.40
2018-05-29T22:53:25.663Z,14.40
2018-05-29T22:55:52.369Z,14.40
2018-05-29T22:58:19.213Z,14.40
2018-05-29T23:00:45.519Z,14.40
2018-05-29T23:03:12.187Z,14.30
2018-05-29T23:05:39.236Z,14.40
2018-05-29T23:08:05.535Z,14.40
2018-05-29T23:10:32.183Z,14.30
2018-05-29T23:12:58.524Z,14.30
2018-05-29T23:15:25.174Z,14.20
2018-05-29T23:17:51.505Z,14.30
2018-05-29T23:20:18.147Z,14.40
2018-05-29T23:22:44.471Z,14.40
2018-05-29T23:25:11.869Z,14.50
2018-05-29T23:27:38.476Z,14.60
2018-05-29T23:30:05.187Z,14.60
2018-05-29T23:32:32.192Z,14.60
2018-05-29T23:34:58.452Z,14.50
2018-05-29T23:37:24.703Z,14.50
2018-05-29T23:39:51.017Z,14.40
2018-05-29T23:42:17.213Z,14.30
2018-05-29T23:44:43.488Z,14.20
2018-05-29T23:47:09.732Z,14.10
2018-05-29T23:49:36.822Z,14.10
2018-05-29T23:52:03.154Z,14.10
2018-05-29T23:54:29.514Z,14.20
2018-05-29T23:56:56.553Z,14.20
2018-05-29T23:59:22.788Z,14.20
